Time;durP1;ratioP1;P1;durP2;ratioP2;P2;SDS_P1;SDS_P2;PMS_P1;PMS_P2;Temp;Humidity;BMP_temperature;BMP_pressure;BME280_temperature;BME280_humidity;BME280_pressure;Samples;Min_cycle;Max_cycle;Signal;HPM_P1;HPM_P2
2022/11/26 00:00:29;;;;;;;11.82;5.40;;;11.10;99.90;;;;;;5114238;28;20020;-46
2022/11/26 00:02:54;;;;;;;10.00;5.40;;;10.90;99.90;;;;;;5114161;28;20067;-50
2022/11/26 00:05:21;;;;;;;11.60;5.53;;;11.70;99.90;;;;;;5114208;28;20035;-46
2022/11/26 00:07:58;;;;;;;9.43;4.80;;;13.40;99.90;;;;;;5114085;28;20361;-50
2022/11/26 00:10:29;;;;;;;10.35;4.72;;;14.20;99.50;;;;;;5114090;28;20030;-45
2022/11/26 00:12:56;;;;;;;9.10;4.82;;;14.00;99.10;;;;;;5114149;28;20024;-49
2022/11/26 00:15:24;;;;;;;9.80;5.13;;;13.60;99.50;;;;;;5113884;28;20084;-45
2022/11/26 00:17:51;;;;;;;8.43;4.88;;;13.00;99.90;;;;;;5112480;28;20027;-44
2022/11/26 00:20:19;;;;;;;8.70;4.80;;;12.50;99.90;;;;;;5113651;28;20020;-46
2022/11/26 00:22:49;;;;;;;9.40;4.30;;;12.10;99.90;;;;;;5113933;28;20484;-45
2022/11/26 00:25:17;;;;;;;9.43;4.95;;;11.70;99.90;;;;;;5113870;28;20456;-45
2022/11/26 00:27:43;;;;;;;10.05;4.53;;;11.30;99.90;;;;;;5113637;28;20042;-46
2022/11/26 00:30:24;;;;;;;8.90;5.10;;;11.10;99.90;;;;;;5113322;28;20036;-45
2022/11/26 00:32:51;;;;;;;10.88;4.65;;;10.90;99.90;;;;;;5113820;28;20027;-46
2022/11/26 00:35:17;;;;;;;9.15;4.68;;;11.70;99.90;;;;;;5113629;28;20084;-46
2022/11/26 00:37:53;;;;;;;9.85;4.80;;;13.30;99.90;;;;;;5113575;28;20028;-46
2022/11/26 00:40:26;;;;;;;9.02;4.88;;;14.10;99.60;;;;;;5113131;28;20537;-45
2022/11/26 00:42:52;;;;;;;6.93;4.70;;;14.00;99.00;;;;;;5113649;28;20027;-45
2022/11/26 00:45:27;;;;;;;7.70;4.03;;;13.50;99.40;;;;;;5113414;28;20102;-49
2022/11/26 00:47:56;;;;;;;9.30;4.47;;;13.00;99.90;;;;;;5113425;28;20068;-52
2022/11/26 00:50:24;;;;;;;8.15;4.93;;;12.50;99.90;;;;;;5113316;28;20507;-46
2022/11/26 00:52:54;;;;;;;7.75;4.40;;;12.10;99.90;;;;;;5113358;28;20031;-45
2022/11/26 00:55:32;;;;;;;8.10;4.25;;;11.60;99.90;;;;;;5113286;27;20494;-46
2022/11/26 00:57:58;;;;;;;10.27;4.30;;;11.30;99.90;;;;;;5112910;28;20032;-46
2022/11/26 01:00:27;;;;;;;10.60;4.68;;;11.10;99.90;;;;;;5113230;28;20034;-46
2022/11/26 01:02:54;;;;;;;8.80;4.05;;;10.90;99.90;;;;;;5113304;28;20023;-51
2022/11/26 01:05:21;;;;;;;7.03;4.10;;;11.70;99.90;;;;;;5113531;28;20019;-46
2022/11/26 01:07:46;;;;;;;10.27;4.35;;;13.30;99.90;;;;;;5112845;28;20026;-46
2022/11/26 01:10:31;;;;;;;7.97;3.83;;;14.20;99.50;;;;;;5112783;28;20027;-46
2022/11/26 01:12:56;;;;;;;7.65;3.78;;;14.00;99.00;;;;;;5113060;28;20477;-44
2022/11/26 01:15:24;;;;;;;9.25;4.10;;;13.50;99.30;;;;;;5112890;28;20042;-45
2022/11/26 01:17:51;;;;;;;6.60;3.50;;;13.00;99.90;;;;;;5112491;28;20020;-48
2022/11/26 01:20:27;;;;;;;7.13;3.75;;;12.50;99.90;;;;;;5112610;28;20068;-45
2022/11/26 01:22:54;;;;;;;6.13;3.72;;;12.00;99.90;;;;;;5112761;28;20047;-46
2022/11/26 01:25:20;;;;;;;6.38;4.03;;;11.70;99.90;;;;;;5112647;28;20508;-49
2022/11/26 01:27:46;;;;;;;6.68;3.97;;;11.40;99.90;;;;;;5112584;28;20473;-47
2022/11/26 01:30:28;;;;;;;6.68;3.72;;;11.20;99.90;;;;;;5112754;28;20023;-48
2022/11/26 01:32:54;;;;;;;6.10;3.80;;;10.90;99.90;;;;;;5112580;28;20126;-50
2022/11/26 01:35:20;;;;;;;6.97;3.53;;;10.80;99.90;;;;;;5112497;28;20111;-46
2022/11/26 01:37:47;;;;;;;5.95;3.20;;;10.60;99.90;;;;;;5112308;28;20101;-46
2022/11/26 01:40:34;;;;;;;6.80;3.95;;;11.40;99.90;;;;;;5111941;28;20039;-46
2022/11/26 01:43:04;;;;;;;6.07;3.03;;;13.30;99.90;;;;;;5112389;28;20016;-46
2022/11/26 01:45:30;;;;;;;6.00;3.50;;;14.50;99.30;;;;;;5112243;28;20516;-46
2022/11/26 01:47:55;;;;;;;5.78;3.42;;;14.40;98.60;;;;;;5111860;28;20031;-46
2022/11/26 01:50:30;;;;;;;6.68;3.47;;;13.90;98.90;;;;;;5112085;28;20408;-48
2022/11/26 01:52:59;;;;;;;;;;;13.30;99.50;;;;;;5112595;28;20020;-46
2022/11/26 01:55:32;;;;;;;7.35;3.55;;;12.80;99.90;;;;;;5111934;28;20424;-49
2022/11/26 01:57:58;;;;;;;6.97;3.88;;;12.30;99.90;;;;;;5111685;28;20024;-45
2022/11/26 02:00:24;;;;;;;7.40;3.50;;;11.90;99.90;;;;;;5112146;28;20023;-46
2022/11/26 02:02:49;;;;;;;6.72;3.75;;;11.50;99.90;;;;;;5112007;28;20492;-49
2022/11/26 02:05:23;;;;;;;6.57;3.05;;;11.30;99.90;;;;;;5111879;28;20081;-45
2022/11/26 02:07:50;;;;;;;5.72;3.15;;;11.00;99.90;;;;;;5111529;28;20380;-46
2022/11/26 02:10:15;;;;;;;7.18;3.53;;;10.90;99.90;;;;;;5111157;28;20155;-46
2022/11/26 02:12:42;;;;;;;8.65;3.30;;;10.70;99.90;;;;;;5111870;28;20031;-47
2022/11/26 02:15:09;;;;;;;5.85;3.13;;;11.40;99.90;;;;;;5111715;28;20024;-45
2022/11/26 02:18:03;;;;;;;5.68;2.78;;;13.00;99.90;;;;;;5111676;28;20024;-47
2022/11/26 02:20:44;;;;;;;7.18;3.05;;;14.30;99.50;;;;;;5111302;28;20035;-45
2022/11/26 02:23:47;;;;;;;4.45;2.65;;;14.30;98.70;;;;;;5111632;28;20473;-44
2022/11/26 02:26:59;;;;;;;5.13;3.00;;;13.70;99.10;;;;;;5111536;28;20152;-46
2022/11/26 02:29:54;;;;;;;7.90;3.92;;;12.90;99.90;;;;;;5111112;28;20729;-46
2022/11/26 02:32:27;;;;;;;7.10;3.00;;;12.30;99.90;;;;;;5111603;28;20023;-45
2022/11/26 02:35:07;;;;;;;6.05;3.13;;;11.80;99.90;;;;;;5110499;28;20107;-48
2022/11/26 02:37:38;;;;;;;5.50;3.03;;;11.50;99.90;;;;;;5111419;28;20026;-46
2022/11/26 02:40:06;;;;;;;6.28;3.10;;;11.20;99.90;;;;;;5110909;28;20488;-47
2022/11/26 02:42:33;;;;;;;5.45;2.90;;;11.00;99.90;;;;;;5111487;28;20439;-44
2022/11/26 02:45:06;;;;;;;4.20;2.92;;;10.80;99.90;;;;;;5111311;28;20030;-46
2022/11/26 02:47:33;;;;;;;6.03;2.88;;;10.70;99.90;;;;;;5110166;28;20103;-46
2022/11/26 02:50:03;;;;;;;5.55;2.97;;;10.60;99.90;;;;;;5110959;28;20038;-46
2022/11/26 02:52:31;;;;;;;4.93;3.00;;;10.50;99.90;;;;;;5111292;28;20028;-44
2022/11/26 02:54:58;;;;;;;5.72;3.17;;;10.40;99.90;;;;;;5111325;28;20070;-46
2022/11/26 02:57:28;;;;;;;4.60;2.83;;;10.40;99.90;;;;;;5111044;28;20039;-46
2022/11/26 02:59:54;;;;;;;6.60;3.20;;;10.40;99.90;;;;;;5110850;28;20118;-47
2022/11/26 03:02:42;;;;;;;6.05;3.17;;;10.30;99.90;;;;;;5111253;28;20030;-47
2022/11/26 03:05:10;;;;;;;7.75;2.90;;;10.80;99.90;;;;;;5111197;28;20073;-46
2022/11/26 03:07:37;;;;;;;4.63;2.90;;;12.70;99.90;;;;;;5111158;28;20476;-45
2022/11/26 03:10:02;;;;;;;4.72;2.78;;;14.30;99.90;;;;;;5110621;28;20027;-47
2022/11/26 03:12:28;;;;;;;4.50;2.80;;;14.70;98.60;;;;;;5111196;28;20377;-49
2022/11/26 03:14:54;;;;;;;6.35;2.78;;;14.20;98.50;;;;;;5111478;28;20036;-45
2022/11/26 03:17:20;;;;;;;4.47;2.72;;;13.60;99.20;;;;;;5111188;28;20504;-46
2022/11/26 03:19:46;;;;;;;6.13;3.00;;;13.00;99.90;;;;;;5110663;28;20030;-44
2022/11/26 03:22:12;;;;;;;4.95;2.58;;;12.50;99.90;;;;;;5111984;28;20058;-44
2022/11/26 03:24:38;;;;;;;5.35;2.83;;;12.00;99.90;;;;;;5115003;28;20020;-46
2022/11/26 03:27:04;;;;;;;5.55;2.97;;;11.60;99.90;;;;;;5114964;28;20495;-48
2022/11/26 03:29:30;;;;;;;5.30;2.63;;;11.30;99.90;;;;;;5114460;27;20655;-44
2022/11/26 03:31:56;;;;;;;4.88;2.65;;;11.00;99.90;;;;;;5115016;28;20055;-45
2022/11/26 03:34:21;;;;;;;4.78;2.35;;;11.20;99.90;;;;;;5114922;28;20019;-46
2022/11/26 03:36:47;;;;;;;5.18;2.58;;;12.50;99.90;;;;;;5114741;27;20377;-44
2022/11/26 03:39:13;;;;;;;4.32;2.20;;;13.70;99.90;;;;;;5114027;28;20312;-45
2022/11/26 03:41:38;;;;;;;5.35;2.80;;;14.00;99.20;;;;;;5114815;28;20019;-45
2022/11/26 03:44:04;;;;;;;3.97;2.28;;;13.60;99.20;;;;;;5114720;28;20027;-46
2022/11/26 03:46:29;;;;;;;6.32;2.70;;;13.10;99.80;;;;;;5114545;28;20016;-47
2022/11/26 03:48:55;;;;;;;7.28;2.22;;;12.50;99.90;;;;;;5114079;28;20051;-42
2022/11/26 03:51:21;;;;;;;5.35;2.42;;;12.10;99.90;;;;;;5114507;28;20704;-46
2022/11/26 03:53:46;;;;;;;6.20;2.40;;;11.70;99.90;;;;;;5113098;28;20027;-46
2022/11/26 03:56:12;;;;;;;4.22;2.22;;;11.40;99.90;;;;;;5114409;28;20054;-49
2022/11/26 03:58:37;;;;;;;5.38;2.13;;;11.10;99.90;;;;;;5113892;28;20468;-46
2022/11/26 04:01:08;;;;;;;4.82;2.30;;;10.90;99.90;;;;;;5114279;28;20023;-44
2022/11/26 04:03:34;;;;;;;5.15;2.10;;;10.90;99.90;;;;;;5114366;27;20019;-47
2022/11/26 04:06:00;;;;;;;3.05;2.15;;;12.10;99.90;;;;;;5114166;28;20347;-46
2022/11/26 04:08:25;;;;;;;5.72;2.55;;;13.70;99.90;;;;;;5113603;28;20031;-44
2022/11/26 04:10:51;;;;;;;4.22;2.20;;;14.20;99.00;;;;;;5114152;28;20460;-46
2022/11/26 04:13:16;;;;;;;4.82;2.55;;;13.90;98.90;;;;;;5114138;28;20397;-47
2022/11/26 04:15:42;;;;;;;3.78;2.10;;;13.40;99.40;;;;;;5114081;28;20031;-45
2022/11/26 04:18:08;;;;;;;4.15;2.22;;;12.80;99.90;;;;;;5113578;28;20392;-46
2022/11/26 04:20:33;;;;;;;4.07;2.30;;;12.30;99.90;;;;;;5113896;28;20385;-47
2022/11/26 04:22:59;;;;;;;3.90;2.10;;;11.90;99.90;;;;;;5113939;28;20028;-45
2022/11/26 04:25:25;;;;;;;4.15;2.30;;;11.50;99.90;;;;;;5114156;28;20054;-46
2022/11/26 04:27:50;;;;;;;3.60;2.17;;;11.20;99.90;;;;;;5113644;28;20031;-46
2022/11/26 04:30:16;;;;;;;3.85;2.33;;;11.00;99.90;;;;;;5113532;28;20373;-45
2022/11/26 04:32:42;;;;;;;4.28;2.00;;;10.80;99.90;;;;;;5113348;28;20035;-46
2022/11/26 04:35:08;;;;;;;4.40;2.10;;;11.50;99.90;;;;;;5113560;28;20120;-48
2022/11/26 04:37:34;;;;;;;2.75;1.98;;;13.10;99.90;;;;;;5113437;28;20131;-49
2022/11/26 04:39:59;;;;;;;3.83;2.20;;;14.10;99.40;;;;;;5112967;28;20556;-45
2022/11/26 04:42:25;;;;;;;3.95;1.98;;;14.00;98.80;;;;;;5113554;28;20028;-44
2022/11/26 04:44:51;;;;;;;3.95;2.13;;;13.50;99.00;;;;;;5113477;28;20164;-46
2022/11/26 04:47:16;;;;;;;3.92;1.80;;;12.90;99.70;;;;;;5113358;28;20381;-47
2022/11/26 04:49:42;;;;;;;4.05;2.20;;;12.40;99.90;;;;;;5112942;28;20069;-44
2022/11/26 04:52:07;;;;;;;5.35;2.25;;;11.90;99.90;;;;;;5113362;28;20027;-45
2022/11/26 04:54:33;;;;;;;4.18;1.90;;;11.60;99.90;;;;;;5113349;28;20059;-46
2022/11/26 04:56:59;;;;;;;4.25;2.40;;;11.20;99.90;;;;;;5113376;28;20050;-46
2022/11/26 04:59:25;;;;;;;4.78;2.35;;;11.00;99.90;;;;;;5112695;28;20139;-48
2022/11/26 05:01:50;;;;;;;3.92;2.17;;;10.80;99.90;;;;;;5113132;28;20031;-45
2022/11/26 05:04:16;;;;;;;3.60;1.80;;;11.00;99.90;;;;;;5113110;28;20418;-45
2022/11/26 05:06:41;;;;;;;3.55;2.10;;;12.30;99.90;;;;;;5112906;28;20019;-46
2022/11/26 05:09:07;;;;;;;4.20;2.00;;;13.70;99.90;;;;;;5112589;28;20051;-46
2022/11/26 05:11:33;;;;;;;3.47;1.70;;;14.00;98.80;;;;;;5112987;28;20042;-47
2022/11/26 05:13:59;;;;;;;3.72;1.85;;;13.70;98.80;;;;;;5112991;28;20481;-46
2022/11/26 05:16:24;;;;;;;2.30;1.50;;;13.10;99.30;;;;;;5112858;28;20111;-46
2022/11/26 05:18:50;;;;;;;2.65;1.40;;;12.60;99.90;;;;;;5112265;28;20098;-45
2022/11/26 05:21:16;;;;;;;3.10;1.98;;;12.00;99.90;;;;;;5112614;28;20099;-47
2022/11/26 05:23:41;;;;;;;2.85;1.95;;;11.60;99.90;;;;;;5112776;28;20020;-47
2022/11/26 05:26:07;;;;;;;4.15;2.30;;;11.20;99.90;;;;;;5112630;28;20024;-46
2022/11/26 05:28:32;;;;;;;3.72;2.20;;;11.00;99.90;;;;;;5111072;28;20028;-45
2022/11/26 05:31:02;;;;;;;4.20;2.20;;;10.80;99.90;;;;;;5112631;28;20031;-47
2022/11/26 05:33:28;;;;;;;4.80;2.30;;;10.60;99.90;;;;;;5112538;28;20032;-49
2022/11/26 05:35:54;;;;;;;3.35;2.42;;;11.70;99.90;;;;;;5112393;28;20106;-42
2022/11/26 05:38:19;;;;;;;4.32;2.63;;;13.30;99.90;;;;;;5111970;28;20035;-45
2022/11/26 05:40:45;;;;;;;4.22;2.15;;;13.90;99.00;;;;;;5112393;28;20057;-44
2022/11/26 05:43:10;;;;;;;4.47;2.42;;;13.70;98.70;;;;;;5112470;28;20031;-46
2022/11/26 05:45:36;;;;;;;3.38;2.05;;;13.20;99.10;;;;;;5111598;28;20073;-44
2022/11/26 05:48:02;;;;;;;3.80;2.10;;;12.60;99.80;;;;;;5111785;28;20024;-53
2022/11/26 05:50:27;;;;;;;3.13;2.20;;;12.10;99.90;;;;;;5112221;28;20099;-44
2022/11/26 05:52:53;;;;;;;3.25;2.08;;;11.70;99.90;;;;;;5112258;28;20110;-47
2022/11/26 05:55:19;;;;;;;4.88;2.10;;;11.30;99.90;;;;;;5112201;28;20031;-45
2022/11/26 05:57:45;;;;;;;4.15;2.40;;;11.00;99.90;;;;;;5112264;28;20519;-54
2022/11/26 06:00:11;;;;;;;2.85;1.92;;;10.80;99.90;;;;;;5111733;28;20073;-45
2022/11/26 06:02:37;;;;;;;4.32;2.33;;;10.60;99.90;;;;;;5112090;28;20026;-44
2022/11/26 06:05:05;;;;;;;3.78;1.80;;;11.20;99.90;;;;;;5111997;28;20047;-48
2022/11/26 06:07:30;;;;;;;3.38;1.83;;;12.70;99.90;;;;;;5111800;28;20020;-46
2022/11/26 06:09:56;;;;;;;2.83;1.92;;;13.90;99.30;;;;;;5110302;28;20031;-46
2022/11/26 06:12:22;;;;;;;3.28;2.00;;;13.80;98.50;;;;;;5111947;28;20023;-49
2022/11/26 06:14:47;;;;;;;3.08;1.73;;;13.40;98.70;;;;;;5111907;28;20023;-44
2022/11/26 06:17:13;;;;;;;3.63;2.00;;;12.80;99.40;;;;;;5111727;28;20019;-44
2022/11/26 06:19:38;;;;;;;2.85;1.90;;;12.30;99.90;;;;;;5111078;28;20377;-46
2022/11/26 06:22:04;;;;;;;2.72;1.95;;;11.80;99.90;;;;;;5111766;28;20066;-46
2022/11/26 06:24:30;;;;;;;2.60;1.77;;;11.40;99.90;;;;;;5111715;28;20069;-44
2022/11/26 06:26:55;;;;;;;2.53;1.77;;;11.10;99.90;;;;;;5111642;28;20369;-44
2022/11/26 06:29:21;;;;;;;2.78;1.70;;;10.80;99.90;;;;;;5111157;28;20106;-47
2022/11/26 06:31:47;;;;;;;2.85;1.90;;;10.60;99.90;;;;;;5111550;28;20022;-45
2022/11/26 06:34:14;;;;;;;2.58;1.80;;;10.70;99.90;;;;;;5111474;28;20389;-46
2022/11/26 06:36:40;;;;;;;2.67;1.77;;;12.10;99.90;;;;;;5111890;28;20384;-46
2022/11/26 06:39:05;;;;;;;2.47;1.75;;;13.60;99.90;;;;;;5110871;28;20039;-46
2022/11/26 06:41:31;;;;;;;3.15;1.83;;;13.90;98.50;;;;;;5111492;28;20031;-46
2022/11/26 06:43:58;;;;;;;4.03;1.77;;;13.60;98.40;;;;;;5111488;28;20023;-47
2022/11/26 06:46:24;;;;;;;2.78;1.83;;;13.00;98.90;;;;;;5111342;28;20027;-46
2022/11/26 06:48:50;;;;;;;3.60;2.00;;;12.50;99.70;;;;;;5110764;28;20026;-44
2022/11/26 06:51:19;;;;;;;2.08;1.50;;;12.00;99.90;;;;;;5111594;28;20032;-46
2022/11/26 06:53:45;;;;;;;2.42;1.63;;;11.50;99.90;;;;;;5111462;28;20034;-44
2022/11/26 06:56:12;;;;;;;3.70;1.90;;;11.10;99.90;;;;;;5112210;28;20027;-44
2022/11/26 06:58:38;;;;;;;4.10;2.00;;;10.90;99.90;;;;;;5115091;28;20415;-46
2022/11/26 07:01:13;;;;;;;3.13;1.90;;;10.60;99.90;;;;;;5115395;28;20019;-45
2022/11/26 07:03:39;;;;;;;2.95;2.03;;;10.40;99.90;;;;;;5115573;28;20069;-44
2022/11/26 07:06:13;;;;;;;5.55;1.92;;;10.30;99.90;;;;;;5115640;28;20055;-45
2022/11/26 07:08:39;;;;;;;2.38;1.77;;;10.20;99.90;;;;;;5114990;27;20059;-45
2022/11/26 07:11:04;;;;;;;3.15;1.75;;;10.10;99.90;;;;;;5115344;28;20060;-45
2022/11/26 07:13:30;;;;;;;3.35;2.00;;;10.00;99.90;;;;;;5115240;28;20477;-50
2022/11/26 07:16:01;;;;;;;3.55;2.40;;;10.00;99.90;;;;;;5115093;28;20027;-46
2022/11/26 07:18:27;;;;;;;3.50;2.03;;;9.90;99.90;;;;;;5114764;28;20542;-46
2022/11/26 07:20:53;;;;;;;3.40;2.42;;;9.90;99.90;;;;;;5114893;28;20028;-46
2022/11/26 07:23:18;;;;;;;3.33;2.20;;;9.90;99.90;;;;;;5115099;28;20028;-48
2022/11/26 07:25:44;;;;;;;3.42;2.15;;;9.90;99.90;;;;;;5115005;28;20024;-45
2022/11/26 07:28:09;;;;;;;3.35;1.77;;;9.80;99.90;;;;;;5114365;28;20392;-44
2022/11/26 07:30:35;;;;;;;4.22;2.10;;;9.80;99.90;;;;;;5114907;28;20499;-45
2022/11/26 07:33:01;;;;;;;2.47;1.65;;;9.80;99.90;;;;;;5114966;28;20039;-48
2022/11/26 07:35:26;;;;;;;4.20;1.88;;;9.80;99.90;;;;;;5114856;28;20070;-46
2022/11/26 07:37:52;;;;;;;3.42;2.28;;;9.80;99.90;;;;;;5114610;28;20015;-45
2022/11/26 07:40:18;;;;;;;3.78;2.20;;;9.70;99.90;;;;;;5114393;28;20495;-46
2022/11/26 07:42:44;;;;;;;3.05;2.40;;;9.80;99.90;;;;;;5114616;28;20031;-47
2022/11/26 07:45:10;;;;;;;2.63;2.00;;;9.80;99.90;;;;;;5114543;28;20073;-49
2022/11/26 07:47:35;;;;;;;2.83;2.22;;;9.80;99.90;;;;;;5114601;28;20051;-48
2022/11/26 07:50:02;;;;;;;2.83;1.95;;;9.80;99.90;;;;;;5112981;28;20136;-45
2022/11/26 07:52:27;;;;;;;3.90;2.10;;;9.80;99.90;;;;;;5114542;28;20438;-46
2022/11/26 07:54:53;;;;;;;2.80;2.00;;;9.80;99.90;;;;;;5114505;28;20028;-44
2022/11/26 07:57:21;;;;;;;2.65;2.00;;;9.80;99.90;;;;;;5114232;28;20016;-46
2022/11/26 07:59:46;;;;;;;3.17;1.88;;;9.80;99.90;;;;;;5113815;28;20024;-46
2022/11/26 08:02:14;;;;;;;3.35;2.25;;;9.80;99.90;;;;;;5114324;28;20030;-48
2022/11/26 08:04:40;;;;;;;5.50;3.55;;;9.80;99.90;;;;;;5114298;28;20076;-45
2022/11/26 08:07:05;;;;;;;11.13;5.78;;;9.70;99.90;;;;;;5114205;28;20500;-46
2022/11/26 08:09:31;;;;;;;10.25;5.78;;;9.30;99.90;;;;;;5113086;28;20051;-46
2022/11/26 08:11:57;;;;;;;8.27;5.10;;;9.00;99.90;;;;;;5114075;28;20130;-46
2022/11/26 08:14:22;;;;;;;12.45;5.72;;;9.10;99.90;;;;;;5114380;28;20058;-49
2022/11/26 08:16:48;;;;;;;10.07;5.47;;;9.20;99.90;;;;;;5114032;28;20031;-47
2022/11/26 08:19:13;;;;;;;8.60;4.97;;;9.30;99.90;;;;;;5112424;28;20073;-46
2022/11/26 08:21:40;;;;;;;10.05;5.07;;;9.40;99.90;;;;;;5113941;28;20026;-46
2022/11/26 08:24:07;;;;;;;9.13;4.88;;;9.50;99.90;;;;;;5113944;28;20027;-46
2022/11/26 08:26:33;;;;;;;5.93;3.40;;;9.50;99.90;;;;;;5113712;28;20016;-47
2022/11/26 08:28:59;;;;;;;7.85;3.40;;;9.30;99.90;;;;;;5113303;28;20473;-46
2022/11/26 08:31:26;;;;;;;6.45;3.10;;;8.90;99.90;;;;;;5113834;28;20603;-45
2022/11/26 08:33:55;;;;;;;6.70;3.25;;;9.00;99.90;;;;;;5113780;28;20055;-48
2022/11/26 08:36:21;;;;;;;4.60;3.25;;;9.10;99.90;;;;;;5113689;28;20098;-45
2022/11/26 08:38:46;;;;;;;4.00;2.95;;;9.20;99.90;;;;;;5111854;28;20119;-47
2022/11/26 08:41:13;;;;;;;5.93;3.38;;;9.30;99.90;;;;;;5113420;28;20484;-48
2022/11/26 08:43:39;;;;;;;6.63;3.45;;;9.70;99.90;;;;;;5113636;28;20023;-46
2022/11/26 08:46:06;;;;;;;4.43;2.85;;;11.20;99.90;;;;;;5113478;28;20024;-47
2022/11/26 08:48:33;;;;;;;4.97;2.60;;;13.20;99.90;;;;;;5112967;28;20469;-47
2022/11/26 08:51:01;;;;;;;4.72;2.65;;;14.70;99.40;;;;;;5113438;28;20465;-47
2022/11/26 08:53:28;;;;;;;3.75;2.65;;;14.80;98.20;;;;;;5113399;28;20026;-47
2022/11/26 08:56:05;;;;;;;7.22;3.03;;;14.20;98.50;;;;;;5113142;28;20404;-45
2022/11/26 08:58:43;;;;;;;5.38;2.70;;;13.40;99.50;;;;;;5112793;28;20366;-47
2022/11/26 09:01:21;;;;;;;3.85;2.90;;;12.70;99.90;;;;;;5113378;28;20028;-47
2022/11/26 09:03:51;;;;;;;7.55;2.85;;;12.20;99.90;;;;;;5113225;28;20028;-49
2022/11/26 09:06:18;;;;;;;4.93;3.17;;;11.80;99.90;;;;;;5112943;28;20015;-47
2022/11/26 09:11:28;;;;;;;5.15;2.97;;;11.20;99.90;;;;;;5113359;28;20404;-46
2022/11/26 09:13:55;;;;;;;5.13;2.50;;;11.00;99.90;;;;;;5112982;28;20024;-47
2022/11/26 09:16:21;;;;;;;4.65;2.90;;;10.90;99.90;;;;;;5112899;27;20027;-48
2022/11/26 09:18:47;;;;;;;4.30;2.85;;;10.80;99.90;;;;;;5112211;28;20098;-50
2022/11/26 09:21:13;;;;;;;5.72;2.80;;;10.70;99.90;;;;;;5111785;28;20024;-45
2022/11/26 09:23:38;;;;;;;5.43;2.60;;;10.60;99.90;;;;;;5112907;28;20392;-45
2022/11/26 09:26:04;;;;;;;4.47;2.67;;;10.60;99.90;;;;;;5112935;27;20027;-47
2022/11/26 09:28:30;;;;;;;4.18;3.08;;;10.60;99.90;;;;;;5112158;28;20105;-48
2022/11/26 09:30:59;;;;;;;4.20;2.80;;;10.60;99.90;;;;;;5112681;28;20028;-47
2022/11/26 09:33:25;;;;;;;4.57;2.63;;;10.50;99.90;;;;;;5112530;28;20032;-46
2022/11/26 09:35:51;;;;;;;5.03;2.60;;;10.50;99.90;;;;;;5112467;28;20038;-46
2022/11/26 09:38:16;;;;;;;4.38;2.70;;;10.60;99.90;;;;;;5111988;28;20488;-47
2022/11/26 09:40:49;;;;;;;4.38;2.42;;;10.60;99.90;;;;;;5112622;28;20028;-48
2022/11/26 09:43:28;;;;;;;4.72;2.70;;;10.60;99.90;;;;;;5112414;28;20116;-47
2022/11/26 09:45:58;;;;;;;5.13;2.30;;;10.60;99.90;;;;;;5112295;28;20030;-47
2022/11/26 09:48:26;;;;;;;5.63;2.85;;;10.60;99.90;;;;;;5111828;28;20047;-46
2022/11/26 09:50:58;;;;;;;5.05;2.70;;;10.60;99.90;;;;;;5112294;28;20024;-47
2022/11/26 09:53:29;;;;;;;5.15;2.70;;;10.60;99.90;;;;;;5112299;28;20096;-47
2022/11/26 09:55:55;;;;;;;4.20;2.60;;;10.60;99.90;;;;;;5112237;28;20027;-48
2022/11/26 09:58:24;;;;;;;3.72;2.53;;;10.70;99.90;;;;;;5111448;28;20055;-49
2022/11/26 10:00:52;;;;;;;4.55;2.38;;;10.70;99.90;;;;;;5112106;28;20423;-46
2022/11/26 10:03:23;;;;;;;3.72;2.22;;;10.70;99.90;;;;;;5112568;27;20034;-47
2022/11/26 10:06:05;;;;;;;5.32;2.45;;;10.80;99.90;;;;;;5112050;28;20020;-47
2022/11/26 10:09:01;;;;;;;5.32;2.47;;;10.80;99.90;;;;;;5111415;28;20015;-50
2022/11/26 10:11:54;;;;;;;4.80;2.47;;;10.80;99.90;;;;;;5112097;28;20035;-46
2022/11/26 10:14:27;;;;;;;3.20;2.22;;;10.80;99.90;;;;;;5110767;28;20028;-47
2022/11/26 10:17:24;;;;;;;5.95;2.75;;;10.80;99.90;;;;;;5111740;28;20110;-47
2022/11/26 10:20:22;;;;;;;6.38;3.05;;;10.90;99.90;;;;;;5111440;28;20453;-47
2022/11/26 10:23:04;;;;;;;3.88;2.20;;;10.90;99.90;;;;;;5111256;28;20036;-50
2022/11/26 10:25:38;;;;;;;4.15;2.38;;;10.90;99.90;;;;;;5111570;28;20038;-47
2022/11/26 10:28:30;;;;;;;5.00;2.55;;;10.90;99.90;;;;;;5111210;28;20411;-47
2022/11/26 10:31:02;;;;;;;4.15;2.33;;;11.00;99.90;;;;;;5111346;28;20023;-49
2022/11/26 10:33:33;;;;;;;3.95;2.47;;;10.90;99.90;;;;;;5111750;28;20508;-47
2022/11/26 10:35:58;;;;;;;4.45;2.45;;;11.00;99.90;;;;;;5110673;28;20032;-49
2022/11/26 10:38:24;;;;;;;3.13;2.15;;;11.00;99.90;;;;;;5111067;28;20065;-47
2022/11/26 10:40:50;;;;;;;3.05;2.08;;;11.00;99.90;;;;;;5111482;28;20389;-45
2022/11/26 10:43:20;;;;;;;5.03;2.50;;;11.00;99.90;;;;;;5111144;28;20642;-45
2022/11/26 10:45:55;;;;;;;5.07;2.20;;;11.10;99.90;;;;;;5111618;28;20027;-46
2022/11/26 10:48:32;;;;;;;5.93;2.47;;;11.10;99.90;;;;;;5111071;28;20024;-47
2022/11/26 10:51:04;;;;;;;3.28;2.05;;;11.10;99.90;;;;;;5111515;28;20035;-46
2022/11/26 10:53:45;;;;;;;4.20;2.22;;;11.10;99.90;;;;;;5111408;28;20019;-47
2022/11/26 10:56:18;;;;;;;4.40;2.28;;;11.10;99.90;;;;;;5111277;28;20020;-49
2022/11/26 10:58:46;;;;;;;4.10;2.38;;;11.10;99.90;;;;;;5110914;28;20055;-47
2022/11/26 11:01:14;;;;;;;3.83;2.00;;;11.20;99.90;;;;;;5111302;28;20028;-46
2022/11/26 11:03:56;;;;;;;3.47;2.13;;;11.10;99.90;;;;;;5111167;28;20089;-51
2022/11/26 11:06:26;;;;;;;3.15;2.05;;;11.20;99.90;;;;;;5109999;28;20056;-46
2022/11/26 11:08:53;;;;;;;3.60;1.95;;;11.10;99.90;;;;;;5110745;28;20492;-46
2022/11/26 11:11:22;;;;;;;4.28;2.10;;;11.20;99.90;;;;;;5111238;28;20034;-46
2022/11/26 11:13:48;;;;;;;3.20;2.10;;;11.20;99.90;;;;;;5111660;28;20028;-47
2022/11/26 11:16:39;;;;;;;5.40;2.05;;;11.20;99.90;;;;;;5111096;28;20381;-45
2022/11/26 11:19:24;;;;;;;4.80;2.15;;;11.20;99.90;;;;;;5105691;28;20039;-46
2022/11/26 11:21:50;;;;;;;4.63;2.35;;;11.10;99.90;;;;;;5111060;28;20035;-45
2022/11/26 11:24:20;;;;;;;3.80;1.80;;;11.20;99.90;;;;;;5111180;28;20032;-47
2022/11/26 11:26:48;;;;;;;3.45;2.00;;;11.10;99.90;;;;;;5110907;28;20093;-47
2022/11/26 11:29:23;;;;;;;2.53;1.88;;;11.20;99.90;;;;;;5110694;28;20012;-47
2022/11/26 11:31:49;;;;;;;5.03;2.35;;;11.10;99.90;;;;;;5111071;28;20476;-47
2022/11/26 11:34:32;;;;;;;3.50;2.05;;;11.10;99.90;;;;;;5111017;28;20057;-49
2022/11/26 11:37:16;;;;;;;4.13;1.90;;;11.10;99.90;;;;;;5111083;28;20384;-47
2022/11/26 11:39:42;;;;;;;3.63;1.73;;;11.20;99.90;;;;;;5110714;28;20062;-47
2022/11/26 11:42:22;;;;;;;3.65;1.73;;;11.20;99.90;;;;;;5111058;28;20028;-45
2022/11/26 11:44:50;;;;;;;4.03;1.70;;;11.20;99.90;;;;;;5114287;28;20040;-47
2022/11/26 11:47:22;;;;;;;3.00;1.70;;;11.20;99.90;;;;;;5114533;28;20028;-49
2022/11/26 11:49:55;;;;;;;3.65;1.80;;;11.20;99.90;;;;;;5114236;28;20023;-47
2022/11/26 11:52:53;;;;;;;4.50;2.00;;;11.20;99.90;;;;;;5114748;28;20024;-46
2022/11/26 11:55:44;;;;;;;3.95;1.90;;;11.20;99.90;;;;;;5110423;28;20507;-47
2022/11/26 11:58:20;;;;;;;4.30;1.98;;;11.10;99.90;;;;;;5114019;28;20023;-47
2022/11/26 12:01:10;;;;;;;3.88;1.92;;;11.10;99.90;;;;;;5114485;28;20158;-45
2022/11/26 12:03:50;;;;;;;2.88;1.70;;;11.20;99.90;;;;;;5114347;28;20059;-47
2022/11/26 12:06:38;;;;;;;2.83;1.60;;;11.20;99.90;;;;;;5114423;28;20038;-47
2022/11/26 12:09:17;;;;;;;3.30;1.90;;;11.10;99.90;;;;;;5113749;27;20110;-50
2022/11/26 12:12:19;;;;;;;3.55;1.92;;;11.10;99.90;;;;;;5114253;28;20023;-47
2022/11/26 12:15:02;;;;;;;3.22;1.80;;;11.10;99.90;;;;;;5114194;28;20388;-47
2022/11/26 12:17:34;;;;;;;3.30;1.80;;;11.10;99.90;;;;;;5113937;28;20028;-45
2022/11/26 12:20:27;;;;;;;2.95;1.75;;;11.10;99.90;;;;;;5113402;28;20028;-47
2022/11/26 12:23:05;;;;;;;3.83;2.03;;;11.10;99.90;;;;;;5105673;28;20081;-49
2022/11/26 12:25:36;;;;;;;4.22;2.13;;;11.10;99.90;;;;;;5114279;28;20405;-47
2022/11/26 12:28:14;;;;;;;3.50;2.10;;;11.10;99.90;;;;;;5113431;28;20016;-47
2022/11/26 12:30:53;;;;;;;3.22;1.95;;;11.10;99.90;;;;;;5113817;28;20024;-47
2022/11/26 12:33:32;;;;;;;4.65;2.30;;;11.10;99.90;;;;;;5113858;28;20072;-47
2022/11/26 12:36:11;;;;;;;2.95;1.90;;;11.10;99.90;;;;;;5113750;28;20157;-47
2022/11/26 12:38:45;;;;;;;3.20;1.80;;;11.10;99.90;;;;;;5113177;28;20036;-45
2022/11/26 12:41:18;;;;;;;3.03;1.77;;;11.00;99.90;;;;;;5113463;28;20065;-47
2022/11/26 12:44:02;;;;;;;4.75;1.90;;;11.10;99.90;;;;;;5113693;28;20102;-51
2022/11/26 12:46:49;;;;;;;2.95;1.92;;;11.10;99.90;;;;;;5113814;28;20027;-46
2022/11/26 12:49:35;;;;;;;3.28;1.73;;;11.00;99.90;;;;;;5113041;28;20034;-45
2022/11/26 12:52:12;;;;;;;3.80;1.65;;;11.10;99.90;;;;;;5113520;28;20529;-47
2022/11/26 12:54:38;;;;;;;2.88;1.77;;;11.10;99.90;;;;;;5113171;28;20078;-50
2022/11/26 12:57:18;;;;;;;3.05;1.70;;;11.00;99.90;;;;;;5113320;27;20055;-46
2022/11/26 13:00:05;;;;;;;4.30;1.60;;;11.10;99.90;;;;;;5113432;28;20024;-45
2022/11/26 13:02:35;;;;;;;2.55;1.50;;;11.00;99.90;;;;;;5113276;28;20429;-48
2022/11/26 13:05:00;;;;;;;4.93;1.85;;;11.10;99.90;;;;;;5111911;28;20027;-48